sensor_id;sensor_type;location;lat;lon;timestamp;pressure;altitude;pressure_sealevel;temperature;humidity
67377;BME280;54261;46.086;6.588;2023-07-13T00:01:48;92705.59;;;21.85;36.21
67377;BME280;54261;46.086;6.588;2023-07-13T00:06:53;92703.31;;;22.02;36.46
67377;BME280;54261;46.086;6.588;2023-07-13T00:11:56;92696.66;;;21.99;36.28
67377;BME280;54261;46.086;6.588;2023-07-13T00:16:59;92701.38;;;22.02;35.96
67377;BME280;54261;46.086;6.588;2023-07-13T00:22:02;92692.00;;;21.99;36.02
67377;BME280;54261;46.086;6.588;2023-07-13T00:27:04;92687.69;;;21.98;35.54
67377;BME280;54261;46.086;6.588;2023-07-13T00:32:07;92681.41;;;21.87;35.39
67377;BME280;54261;46.086;6.588;2023-07-13T00:37:11;92679.09;;;22.00;35.46
67377;BME280;54261;46.086;6.588;2023-07-13T00:42:12;92674.06;;;22.02;36.49
67377;BME280;54261;46.086;6.588;2023-07-13T00:47:14;92680.63;;;21.87;36.98
67377;BME280;54261;46.086;6.588;2023-07-13T00:52:16;92683.72;;;21.70;37.44
67377;BME280;54261;46.086;6.588;2023-07-13T00:57:20;92683.66;;;21.63;37.52
67377;BME280;54261;46.086;6.588;2023-07-13T01:02:24;92688.38;;;21.70;37.69
67377;BME280;54261;46.086;6.588;2023-07-13T01:07:26;92690.69;;;21.64;37.88
67377;BME280;54261;46.086;6.588;2023-07-13T01:12:31;92682.53;;;21.71;37.67
67377;BME280;54261;46.086;6.588;2023-07-13T01:17:34;92671.56;;;21.57;38.04
67377;BME280;54261;46.086;6.588;2023-07-13T01:22:36;92674.69;;;21.59;37.69
67377;BME280;54261;46.086;6.588;2023-07-13T01:27:38;92676.25;;;21.60;37.54
67377;BME280;54261;46.086;6.588;2023-07-13T01:32:43;92686.72;;;21.47;37.25
67377;BME280;54261;46.086;6.588;2023-07-13T01:37:45;92685.16;;;21.42;37.85
67377;BME280;54261;46.086;6.588;2023-07-13T01:42:49;92678.75;;;21.24;37.93
67377;BME280;54261;46.086;6.588;2023-07-13T01:47:54;92675.19;;;21.12;38.21
67377;BME280;54261;46.086;6.588;2023-07-13T01:52:56;92686.50;;;21.11;38.56
67377;BME280;54261;46.086;6.588;2023-07-13T01:57:58;92677.50;;;21.03;38.83
67377;BME280;54261;46.086;6.588;2023-07-13T02:03:00;92641.88;;;20.81;39.04
67377;BME280;54261;46.086;6.588;2023-07-13T02:08:02;92674.38;;;21.08;39.03
67377;BME280;54261;46.086;6.588;2023-07-13T02:13:06;92642.38;;;20.94;38.73
67377;BME280;54261;46.086;6.588;2023-07-13T02:18:08;92668.94;;;21.08;38.81
67377;BME280;54261;46.086;6.588;2023-07-13T02:23:11;92661.84;;;20.93;38.50
67377;BME280;54261;46.086;6.588;2023-07-13T02:28:13;92670.75;;;20.86;38.67
67377;BME280;54261;46.086;6.588;2023-07-13T02:33:15;92682.69;;;20.70;38.56
67377;BME280;54261;46.086;6.588;2023-07-13T02:38:17;92684.13;;;20.57;38.90
67377;BME280;54261;46.086;6.588;2023-07-13T02:43:19;92683.69;;;20.51;38.98
67377;BME280;54261;46.086;6.588;2023-07-13T02:48:22;92682.56;;;20.56;39.34
67377;BME280;54261;46.086;6.588;2023-07-13T02:53:25;92674.44;;;20.59;39.45
67377;BME280;54261;46.086;6.588;2023-07-13T02:58:27;92666.53;;;20.51;39.16
67377;BME280;54261;46.086;6.588;2023-07-13T03:03:29;92655.34;;;20.63;39.18
67377;BME280;54261;46.086;6.588;2023-07-13T03:08:31;92662.00;;;20.66;38.92
67377;BME280;54261;46.086;6.588;2023-07-13T03:13:34;92656.50;;;20.62;38.74
67377;BME280;54261;46.086;6.588;2023-07-13T03:18:38;92671.75;;;20.67;38.56
67377;BME280;54261;46.086;6.588;2023-07-13T03:23:43;92666.53;;;20.51;38.99
67377;BME280;54261;46.086;6.588;2023-07-13T03:28:45;92663.38;;;20.41;39.09
67377;BME280;54261;46.086;6.588;2023-07-13T03:33:52;92671.88;;;20.33;39.25
67377;BME280;54261;46.086;6.588;2023-07-13T03:38:57;92676.91;;;20.34;39.47
67377;BME280;54261;46.086;6.588;2023-07-13T03:44:03;92671.38;;;20.23;39.41
67377;BME280;54261;46.086;6.588;2023-07-13T03:49:05;92678.78;;;20.26;39.45
67377;BME280;54261;46.086;6.588;2023-07-13T03:54:07;92678.75;;;20.19;39.82
67377;BME280;54261;46.086;6.588;2023-07-13T03:59:09;92660.84;;;20.22;39.87
67377;BME280;54261;46.086;6.588;2023-07-13T04:04:11;92684.38;;;20.41;39.75
67377;BME280;54261;46.086;6.588;2023-07-13T04:09:13;92686.00;;;20.49;39.71
67377;BME280;54261;46.086;6.588;2023-07-13T04:14:16;92667.53;;;20.28;39.90
67377;BME280;54261;46.086;6.588;2023-07-13T04:19:18;92684.78;;;20.43;40.32
67377;BME280;54261;46.086;6.588;2023-07-13T04:24:20;92682.00;;;20.36;40.49
67377;BME280;54261;46.086;6.588;2023-07-13T04:29:22;92697.97;;;20.37;40.57
67377;BME280;54261;46.086;6.588;2023-07-13T04:34:24;92707.28;;;20.33;40.69
67377;BME280;54261;46.086;6.588;2023-07-13T04:39:26;92720.09;;;20.32;40.78
67377;BME280;54261;46.086;6.588;2023-07-13T04:44:28;92726.75;;;20.35;40.32
67377;BME280;54261;46.086;6.588;2023-07-13T04:49:29;92732.81;;;20.21;40.71
67377;BME280;54261;46.086;6.588;2023-07-13T04:54:32;92736.31;;;19.87;41.31
67377;BME280;54261;46.086;6.588;2023-07-13T04:59:34;92743.50;;;20.02;41.60
67377;BME280;54261;46.086;6.588;2023-07-13T05:04:36;92753.53;;;20.29;41.56
67377;BME280;54261;46.086;6.588;2023-07-13T05:09:38;92760.00;;;20.51;41.47
67377;BME280;54261;46.086;6.588;2023-07-13T05:14:40;92751.28;;;20.35;41.33
67377;BME280;54261;46.086;6.588;2023-07-13T05:19:43;92754.91;;;19.81;42.67
67377;BME280;54261;46.086;6.588;2023-07-13T05:24:45;92751.88;;;19.86;42.86
67377;BME280;54261;46.086;6.588;2023-07-13T05:29:47;92765.72;;;20.08;42.51
67377;BME280;54261;46.086;6.588;2023-07-13T05:34:48;92756.94;;;19.88;42.69
67377;BME280;54261;46.086;6.588;2023-07-13T05:39:50;92759.50;;;19.46;43.19
67377;BME280;54261;46.086;6.588;2023-07-13T05:44:52;92768.91;;;18.99;44.60
67377;BME280;54261;46.086;6.588;2023-07-13T05:49:54;92674.84;;;18.44;44.50
67377;BME280;54261;46.086;6.588;2023-07-13T05:54:56;92772.47;;;19.03;44.69
67377;BME280;54261;46.086;6.588;2023-07-13T05:59:58;92770.91;;;19.29;44.30
67377;BME280;54261;46.086;6.588;2023-07-13T06:05:00;92785.41;;;19.64;43.50
67377;BME280;54261;46.086;6.588;2023-07-13T06:10:02;92780.44;;;19.69;43.07
67377;BME280;54261;46.086;6.588;2023-07-13T06:15:04;92792.78;;;19.36;44.05
67377;BME280;54261;46.086;6.588;2023-07-13T06:20:07;92791.66;;;19.14;44.65
67377;BME280;54261;46.086;6.588;2023-07-13T06:25:09;92785.22;;;18.99;45.37
67377;BME280;54261;46.086;6.588;2023-07-13T06:30:11;92797.97;;;19.45;44.91
67377;BME280;54261;46.086;6.588;2023-07-13T06:35:14;92784.84;;;19.51;44.39
67377;BME280;54261;46.086;6.588;2023-07-13T06:40:16;92793.63;;;19.98;44.24
67377;BME280;54261;46.086;6.588;2023-07-13T06:45:18;92799.75;;;20.22;44.00
67377;BME280;54261;46.086;6.588;2023-07-13T06:50:20;92802.03;;;18.85;46.26
67377;BME280;54261;46.086;6.588;2023-07-13T06:55:22;92799.34;;;16.79;52.37
67377;BME280;54261;46.086;6.588;2023-07-13T07:00:24;92789.34;;;17.67;50.25
67377;BME280;54261;46.086;6.588;2023-07-13T07:05:26;92803.84;;;16.75;52.81
67377;BME280;54261;46.086;6.588;2023-07-13T07:10:29;92813.41;;;16.85;53.66
67377;BME280;54261;46.086;6.588;2023-07-13T07:15:31;92805.41;;;16.76;53.38
67377;BME280;54261;46.086;6.588;2023-07-13T07:20:33;92824.13;;;17.45;52.83
67377;BME280;54261;46.086;6.588;2023-07-13T07:25:35;92812.06;;;17.98;51.10
67377;BME280;54261;46.086;6.588;2023-07-13T07:30:47;92811.16;;;18.10;51.07
67377;BME280;54261;46.086;6.588;2023-07-13T07:35:52;92824.06;;;18.99;47.94
67377;BME280;54261;46.086;6.588;2023-07-13T07:40:57;92827.44;;;19.16;46.33
67377;BME280;54261;46.086;6.588;2023-07-13T07:46:02;92821.16;;;17.34;51.54
67377;BME280;54261;46.086;6.588;2023-07-13T07:51:04;92831.13;;;17.14;50.64
67377;BME280;54261;46.086;6.588;2023-07-13T07:56:06;92825.69;;;15.68;54.89
67377;BME280;54261;46.086;6.588;2023-07-13T08:01:28;92833.53;;;16.55;53.58
67377;BME280;54261;46.086;6.588;2023-07-13T08:06:33;92836.22;;;17.00;51.44
67377;BME280;54261;46.086;6.588;2023-07-13T08:11:38;92842.22;;;18.13;50.41
67377;BME280;54261;46.086;6.588;2023-07-13T08:16:43;92843.94;;;18.01;49.83
67377;BME280;54261;46.086;6.588;2023-07-13T08:21:45;92836.63;;;17.86;49.65
67377;BME280;54261;46.086;6.588;2023-07-13T08:26:46;92839.22;;;17.98;50.61
67377;BME280;54261;46.086;6.588;2023-07-13T08:31:48;92834.38;;;17.88;48.72
67377;BME280;54261;46.086;6.588;2023-07-13T08:36:50;92818.59;;;18.33;48.64
67377;BME280;54261;46.086;6.588;2023-07-13T08:41:56;92858.97;;;18.15;49.11
67377;BME280;54261;46.086;6.588;2023-07-13T08:46:59;92843.44;;;18.15;47.99
67377;BME280;54261;46.086;6.588;2023-07-13T08:52:12;92852.66;;;19.63;46.58
67377;BME280;54261;46.086;6.588;2023-07-13T08:57:21;92818.13;;;18.94;45.82
67377;BME280;54261;46.086;6.588;2023-07-13T09:02:41;92849.94;;;18.70;46.68
67377;BME280;54261;46.086;6.588;2023-07-13T09:18:31;92857.38;;;18.53;49.44
67377;BME280;54261;46.086;6.588;2023-07-13T09:23:36;92839.31;;;19.31;47.48
67377;BME280;54261;46.086;6.588;2023-07-13T09:28:51;92855.28;;;17.52;49.58
67377;BME280;54261;46.086;6.588;2023-07-13T09:33:55;92844.09;;;19.38;45.13
67377;BME280;54261;46.086;6.588;2023-07-13T09:39:27;92850.81;;;19.21;45.64
67377;BME280;54261;46.086;6.588;2023-07-13T09:44:34;92852.34;;;17.96;46.75
67377;BME280;54261;46.086;6.588;2023-07-13T09:49:37;92847.19;;;19.90;43.66
67377;BME280;54261;46.086;6.588;2023-07-13T09:54:39;92852.50;;;19.29;43.50
67377;BME280;54261;46.086;6.588;2023-07-13T09:59:45;92865.88;;;20.19;42.66
67377;BME280;54261;46.086;6.588;2023-07-13T10:04:56;92866.69;;;18.72;46.40
67377;BME280;54261;46.086;6.588;2023-07-13T10:10:01;92869.44;;;18.16;44.18
67377;BME280;54261;46.086;6.588;2023-07-13T10:15:09;92870.75;;;19.05;43.07
67377;BME280;54261;46.086;6.588;2023-07-13T10:20:26;92888.97;;;18.02;43.67
67377;BME280;54261;46.086;6.588;2023-07-13T10:25:33;92891.03;;;18.09;43.95
67377;BME280;54261;46.086;6.588;2023-07-13T10:30:40;92896.59;;;19.38;43.17
67377;BME280;54261;46.086;6.588;2023-07-13T10:35:44;92893.75;;;19.81;41.91
67377;BME280;54261;46.086;6.588;2023-07-13T10:45:59;92884.94;;;17.12;45.66
67377;BME280;54261;46.086;6.588;2023-07-13T10:51:04;92894.63;;;17.77;42.83
67377;BME280;54261;46.086;6.588;2023-07-13T11:01:16;92884.19;;;19.91;38.14
67377;BME280;54261;46.086;6.588;2023-07-13T11:16:43;92883.63;;;20.36;37.66
67377;BME280;54261;46.086;6.588;2023-07-13T11:32:37;92855.78;;;20.88;34.81
67377;BME280;54261;46.086;6.588;2023-07-13T11:37:40;92887.78;;;19.49;36.47
67377;BME280;54261;46.086;6.588;2023-07-13T11:42:41;92868.53;;;21.18;35.30
67377;BME280;54261;46.086;6.588;2023-07-13T11:47:43;92865.13;;;20.52;35.21
67377;BME280;54261;46.086;6.588;2023-07-13T11:52:45;92860.81;;;19.36;35.84
67377;BME280;54261;46.086;6.588;2023-07-13T11:57:58;92855.06;;;19.68;34.89
67377;BME280;54261;46.086;6.588;2023-07-13T12:03:01;92845.00;;;19.45;37.21
67377;BME280;54261;46.086;6.588;2023-07-13T12:08:11;92838.94;;;18.62;36.97
67377;BME280;54261;46.086;6.588;2023-07-13T12:13:26;92835.88;;;19.88;35.57
67377;BME280;54261;46.086;6.588;2023-07-13T12:18:30;92823.97;;;19.69;36.04
67377;BME280;54261;46.086;6.588;2023-07-13T12:23:34;92822.16;;;21.18;34.63
67377;BME280;54261;46.086;6.588;2023-07-13T12:28:53;92830.94;;;20.62;33.06
67377;BME280;54261;46.086;6.588;2023-07-13T12:34:02;92830.50;;;21.39;32.38
67377;BME280;54261;46.086;6.588;2023-07-13T12:39:17;92781.88;;;20.58;34.43
67377;BME280;54261;46.086;6.588;2023-07-13T12:44:31;92816.34;;;21.23;33.47
67377;BME280;54261;46.086;6.588;2023-07-13T12:49:33;92819.47;;;21.25;32.74
67377;BME280;54261;46.086;6.588;2023-07-13T12:54:39;92827.00;;;20.94;33.62
67377;BME280;54261;46.086;6.588;2023-07-13T12:59:52;92822.31;;;20.91;32.78
67377;BME280;54261;46.086;6.588;2023-07-13T13:04:56;92829.38;;;22.04;31.68
67377;BME280;54261;46.086;6.588;2023-07-13T13:09:58;92834.34;;;21.31;31.36
67377;BME280;54261;46.086;6.588;2023-07-13T13:15:00;92832.56;;;22.20;30.00
67377;BME280;54261;46.086;6.588;2023-07-13T13:20:18;92843.84;;;21.45;30.16
67377;BME280;54261;46.086;6.588;2023-07-13T13:25:20;92824.09;;;20.38;29.48
67377;BME280;54261;46.086;6.588;2023-07-13T13:30:23;92816.78;;;20.45;31.58
67377;BME280;54261;46.086;6.588;2023-07-13T13:35:26;92827.00;;;20.56;31.38
67377;BME280;54261;46.086;6.588;2023-07-13T13:40:28;92805.16;;;20.90;29.30
67377;BME280;54261;46.086;6.588;2023-07-13T13:45:32;92810.75;;;21.53;29.14
67377;BME280;54261;46.086;6.588;2023-07-13T13:50:34;92806.13;;;22.46;28.32
67377;BME280;54261;46.086;6.588;2023-07-13T13:55:36;92799.28;;;22.00;26.64
67377;BME280;54261;46.086;6.588;2023-07-13T14:00:38;92801.44;;;22.36;25.72
67377;BME280;54261;46.086;6.588;2023-07-13T14:05:43;92804.53;;;22.34;24.92
67377;BME280;54261;46.086;6.588;2023-07-13T14:10:48;92813.03;;;22.15;24.38
67377;BME280;54261;46.086;6.588;2023-07-13T14:15:51;92811.69;;;22.79;24.79
67377;BME280;54261;46.086;6.588;2023-07-13T14:20:54;92817.56;;;23.93;25.42
67377;BME280;54261;46.086;6.588;2023-07-13T14:25:56;92803.22;;;24.64;21.93
67377;BME280;54261;46.086;6.588;2023-07-13T14:30:57;92816.53;;;25.75;22.72
67377;BME280;54261;46.086;6.588;2023-07-13T14:35:59;92810.28;;;25.74;21.78
67377;BME280;54261;46.086;6.588;2023-07-13T14:41:01;92829.34;;;25.47;19.97
67377;BME280;54261;46.086;6.588;2023-07-13T14:46:03;92817.56;;;27.20;19.30
67377;BME280;54261;46.086;6.588;2023-07-13T14:51:08;92817.81;;;27.29;19.01
67377;BME280;54261;46.086;6.588;2023-07-13T14:56:12;92810.56;;;28.31;18.22
67377;BME280;54261;46.086;6.588;2023-07-13T15:01:15;92813.50;;;26.73;19.14
67377;BME280;54261;46.086;6.588;2023-07-13T15:06:19;92806.03;;;27.29;18.44
67377;BME280;54261;46.086;6.588;2023-07-13T15:11:21;92813.38;;;27.63;18.29
67377;BME280;54261;46.086;6.588;2023-07-13T15:16:25;92798.34;;;27.68;18.70
67377;BME280;54261;46.086;6.588;2023-07-13T15:21:27;92810.72;;;28.24;17.56
67377;BME280;54261;46.086;6.588;2023-07-13T15:26:36;92813.69;;;29.10;17.99
67377;BME280;54261;46.086;6.588;2023-07-13T15:31:40;92812.03;;;27.48;17.77
67377;BME280;54261;46.086;6.588;2023-07-13T15:36:43;92813.31;;;29.08;17.97
67377;BME280;54261;46.086;6.588;2023-07-13T15:41:46;92812.84;;;28.56;17.22
67377;BME280;54261;46.086;6.588;2023-07-13T15:46:49;92791.28;;;26.88;18.96
67377;BME280;54261;46.086;6.588;2023-07-13T15:51:52;92805.88;;;28.48;18.30
67377;BME280;54261;46.086;6.588;2023-07-13T15:56:55;92788.81;;;28.74;17.35
67377;BME280;54261;46.086;6.588;2023-07-13T16:01:57;92811.06;;;26.79;17.92
67377;BME280;54261;46.086;6.588;2023-07-13T16:06:59;92804.38;;;28.03;17.21
67377;BME280;54261;46.086;6.588;2023-07-13T16:12:01;92811.88;;;29.53;16.85
67377;BME280;54261;46.086;6.588;2023-07-13T16:17:04;92791.03;;;28.01;17.59
67377;BME280;54261;46.086;6.588;2023-07-13T16:22:15;92793.75;;;27.81;18.99
67377;BME280;54261;46.086;6.588;2023-07-13T16:27:18;92809.78;;;28.10;18.20
67377;BME280;54261;46.086;6.588;2023-07-13T16:32:20;92795.13;;;27.93;18.88
67377;BME280;54261;46.086;6.588;2023-07-13T16:37:28;92792.31;;;27.49;19.47
67377;BME280;54261;46.086;6.588;2023-07-13T16:42:31;92801.00;;;27.48;19.67
67377;BME280;54261;46.086;6.588;2023-07-13T16:47:33;92798.34;;;26.89;20.42
67377;BME280;54261;46.086;6.588;2023-07-13T16:52:35;92815.63;;;26.89;20.13
67377;BME280;54261;46.086;6.588;2023-07-13T16:57:37;92814.75;;;27.95;19.02
67377;BME280;54261;46.086;6.588;2023-07-13T17:02:40;92815.69;;;27.65;20.42
67377;BME280;54261;46.086;6.588;2023-07-13T17:07:43;92816.41;;;27.69;19.40
67377;BME280;54261;46.086;6.588;2023-07-13T17:12:45;92818.84;;;26.84;20.18
67377;BME280;54261;46.086;6.588;2023-07-13T17:17:49;92791.44;;;28.00;18.73
67377;BME280;54261;46.086;6.588;2023-07-13T17:22:53;92803.53;;;26.83;19.76
67377;BME280;54261;46.086;6.588;2023-07-13T17:27:55;92802.38;;;27.83;19.23
67377;BME280;54261;46.086;6.588;2023-07-13T17:32:57;92820.34;;;27.44;19.71
67377;BME280;54261;46.086;6.588;2023-07-13T17:38:02;92816.47;;;27.89;18.64
67377;BME280;54261;46.086;6.588;2023-07-13T17:43:04;92803.06;;;28.32;19.26
67377;BME280;54261;46.086;6.588;2023-07-13T17:48:08;92813.75;;;27.38;19.78
67377;BME280;54261;46.086;6.588;2023-07-13T17:53:19;92823.06;;;26.61;19.96
67377;BME280;54261;46.086;6.588;2023-07-13T17:58:21;92817.09;;;26.36;20.24
67377;BME280;54261;46.086;6.588;2023-07-13T18:03:26;92805.06;;;26.22;20.53
67377;BME280;54261;46.086;6.588;2023-07-13T18:08:36;92814.31;;;25.62;21.07
67377;BME280;54261;46.086;6.588;2023-07-13T18:13:37;92801.91;;;26.24;21.69
67377;BME280;54261;46.086;6.588;2023-07-13T18:18:42;92800.47;;;25.73;21.32
67377;BME280;54261;46.086;6.588;2023-07-13T18:23:46;92801.41;;;26.32;21.02
67377;BME280;54261;46.086;6.588;2023-07-13T18:28:48;92790.53;;;26.84;21.24
67377;BME280;54261;46.086;6.588;2023-07-13T18:33:52;92796.31;;;27.44;20.42
67377;BME280;54261;46.086;6.588;2023-07-13T18:38:55;92808.16;;;27.17;20.46
67377;BME280;54261;46.086;6.588;2023-07-13T18:43:57;92799.38;;;27.26;20.95
67377;BME280;54261;46.086;6.588;2023-07-13T18:48:59;92797.59;;;27.16;20.06
67377;BME280;54261;46.086;6.588;2023-07-13T18:54:02;92798.44;;;26.54;20.56
67377;BME280;54261;46.086;6.588;2023-07-13T18:59:04;92798.75;;;25.48;21.19
67377;BME280;54261;46.086;6.588;2023-07-13T19:04:26;92797.25;;;25.82;21.20
67377;BME280;54261;46.086;6.588;2023-07-13T19:09:28;92772.03;;;25.53;21.61
67377;BME280;54261;46.086;6.588;2023-07-13T19:14:30;92780.50;;;25.69;22.43
67377;BME280;54261;46.086;6.588;2023-07-13T19:19:33;92792.66;;;25.68;22.78
67377;BME280;54261;46.086;6.588;2023-07-13T19:24:35;92791.25;;;25.53;23.68
67377;BME280;54261;46.086;6.588;2023-07-13T19:29:37;92767.56;;;25.24;23.41
67377;BME280;54261;46.086;6.588;2023-07-13T19:34:40;92780.81;;;24.73;25.36
67377;BME280;54261;46.086;6.588;2023-07-13T19:39:42;92805.81;;;24.07;26.43
67377;BME280;54261;46.086;6.588;2023-07-13T19:44:44;92801.97;;;23.18;27.97
67377;BME280;54261;46.086;6.588;2023-07-13T19:49:46;92798.72;;;22.47;28.78
67377;BME280;54261;46.086;6.588;2023-07-13T19:54:50;92820.31;;;21.85;30.29
67377;BME280;54261;46.086;6.588;2023-07-13T19:59:53;92816.19;;;21.53;29.53
67377;BME280;54261;46.086;6.588;2023-07-13T20:04:56;92829.22;;;21.26;29.83
67377;BME280;54261;46.086;6.588;2023-07-13T20:10:29;92823.59;;;21.04;29.86
67377;BME280;54261;46.086;6.588;2023-07-13T20:15:31;92829.94;;;21.15;30.08
67377;BME280;54261;46.086;6.588;2023-07-13T20:20:36;92837.63;;;21.06;31.18
67377;BME280;54261;46.086;6.588;2023-07-13T20:25:41;92835.34;;;21.12;30.47
67377;BME280;54261;46.086;6.588;2023-07-13T20:30:47;92838.03;;;21.08;30.81
67377;BME280;54261;46.086;6.588;2023-07-13T20:35:50;92849.53;;;20.87;31.27
67377;BME280;54261;46.086;6.588;2023-07-13T20:40:53;92853.38;;;20.82;31.26
67377;BME280;54261;46.086;6.588;2023-07-13T20:45:59;92826.97;;;20.52;31.70
67377;BME280;54261;46.086;6.588;2023-07-13T20:51:02;92844.44;;;20.48;31.96
67377;BME280;54261;46.086;6.588;2023-07-13T20:56:14;92852.69;;;20.55;31.48
67377;BME280;54261;46.086;6.588;2023-07-13T21:01:30;92851.19;;;20.61;31.48
67377;BME280;54261;46.086;6.588;2023-07-13T21:06:34;92842.47;;;20.44;31.90
67377;BME280;54261;46.086;6.588;2023-07-13T21:11:37;92837.66;;;20.03;32.70
67377;BME280;54261;46.086;6.588;2023-07-13T21:16:39;92846.56;;;20.00;32.90
67377;BME280;54261;46.086;6.588;2023-07-13T21:21:41;92844.81;;;19.85;32.68
67377;BME280;54261;46.086;6.588;2023-07-13T21:26:43;92850.19;;;19.81;33.50
67377;BME280;54261;46.086;6.588;2023-07-13T21:31:45;92836.53;;;19.51;33.29
67377;BME280;54261;46.086;6.588;2023-07-13T21:36:46;92826.78;;;19.23;34.25
67377;BME280;54261;46.086;6.588;2023-07-13T21:41:48;92864.78;;;19.19;34.89
67377;BME280;54261;46.086;6.588;2023-07-13T21:46:50;92826.75;;;18.76;34.67
67377;BME280;54261;46.086;6.588;2023-07-13T21:51:52;92841.22;;;18.60;34.98
67377;BME280;54261;46.086;6.588;2023-07-13T21:56:54;92842.81;;;18.85;34.37
67377;BME280;54261;46.086;6.588;2023-07-13T22:01:56;92848.28;;;19.08;34.52
67377;BME280;54261;46.086;6.588;2023-07-13T22:06:58;92854.56;;;19.36;34.23
67377;BME280;54261;46.086;6.588;2023-07-13T22:12:01;92845.50;;;19.28;33.78
67377;BME280;54261;46.086;6.588;2023-07-13T22:17:04;92851.69;;;19.25;33.57
67377;BME280;54261;46.086;6.588;2023-07-13T22:22:07;92856.66;;;18.96;34.83
67377;BME280;54261;46.086;6.588;2023-07-13T22:27:10;92850.75;;;18.94;34.30
67377;BME280;54261;46.086;6.588;2023-07-13T22:32:12;92841.75;;;18.89;33.99
67377;BME280;54261;46.086;6.588;2023-07-13T22:37:14;92844.84;;;18.88;34.49
67377;BME280;54261;46.086;6.588;2023-07-13T22:42:16;92847.38;;;18.57;35.26
67377;BME280;54261;46.086;6.588;2023-07-13T22:47:19;92829.16;;;18.18;36.06
67377;BME280;54261;46.086;6.588;2023-07-13T22:52:21;92830.94;;;18.11;35.51
67377;BME280;54261;46.086;6.588;2023-07-13T22:57:22;92827.50;;;17.94;36.41
67377;BME280;54261;46.086;6.588;2023-07-13T23:02:26;92830.56;;;17.92;35.92
67377;BME280;54261;46.086;6.588;2023-07-13T23:07:27;92833.22;;;17.89;36.45
67377;BME280;54261;46.086;6.588;2023-07-13T23:12:31;92805.88;;;17.98;35.90
67377;BME280;54261;46.086;6.588;2023-07-13T23:17:32;92826.00;;;17.97;36.38
67377;BME280;54261;46.086;6.588;2023-07-13T23:22:34;92822.38;;;17.89;36.33
67377;BME280;54261;46.086;6.588;2023-07-13T23:27:36;92810.41;;;17.74;36.16
67377;BME280;54261;46.086;6.588;2023-07-13T23:32:38;92796.03;;;17.54;36.44
67377;BME280;54261;46.086;6.588;2023-07-13T23:37:41;92831.59;;;17.68;36.59
67377;BME280;54261;46.086;6.588;2023-07-13T23:42:43;92829.25;;;17.67;36.61
67377;BME280;54261;46.086;6.588;2023-07-13T23:47:48;92782.81;;;17.52;36.25
67377;BME280;54261;46.086;6.588;2023-07-13T23:52:50;92816.91;;;17.69;36.21
67377;BME280;54261;46.086;6.588;2023-07-13T23:57:57;92806.00;;;17.85;35.87
